Terminal Aerodrome Forecast
Issued by NWS

Home | Current Version | Previous Version | Text Only | Print | Product List | Glossary On
Versions: 1 2 3 4 5 6 7 8 9 10 11 12 13 14 15 16 17 18 19
000
FTUS46 KMFR 232332
TAFRBG
TAF
KRBG 232332Z 2400/2424 16008G15KT P6SM -RA OVC050 WS015/20035KT
     FM241000 17007KT P6SM -RA SCT015 OVC030
     FM241500 17006KT 4SM RA SCT005 OVC012=

USA.gov is the U.S. government's official web portal to all federal, state and local government web resources and services.